createdAt,value
2018-12-21T00:04:37.903Z,7.50
2018-12-21T00:09:30.811Z,7.50
2018-12-21T00:14:23.923Z,7.40
2018-12-21T00:19:16.999Z,7.40
2018-12-21T00:24:10.100Z,7.50
2018-12-21T00:29:04.251Z,7.40
2018-12-21T00:34:02.758Z,7.40
2018-12-21T00:39:01.563Z,7.50
2018-12-21T00:43:56.681Z,7.50
2018-12-21T00:48:49.790Z,7.60
2018-12-21T00:53:42.735Z,7.60
2018-12-21T00:58:35.694Z,7.60
2018-12-21T01:03:29.987Z,7.60
2018-12-21T01:08:22.993Z,7.70
2018-12-21T01:13:17.564Z,7.70
2018-12-21T01:18:11.660Z,7.80
2018-12-21T01:23:06.059Z,7.70
2018-12-21T01:27:59.536Z,7.80
2018-12-21T01:32:52.811Z,7.80
2018-12-21T01:37:45.794Z,7.90
2018-12-21T01:42:39.266Z,7.90
2018-12-21T01:47:32.449Z,7.90
2018-12-21T01:52:25.403Z,8.00
2018-12-21T01:57:18.267Z,7.90
2018-12-21T02:02:11.338Z,8.10
2018-12-21T02:07:04.549Z,7.90
2018-12-21T02:11:57.479Z,8.00
2018-12-21T02:16:50.242Z,8.00
2018-12-21T02:21:43.517Z,8.00
2018-12-21T02:26:37.339Z,8.10
2018-12-21T02:31:31.398Z,8.10
2018-12-21T02:36:25.192Z,8.10
2018-12-21T02:41:18.258Z,8.10
2018-12-21T02:46:11.020Z,8.10
2018-12-21T02:51:04.501Z,8.00
2018-12-21T02:55:57.574Z,8.10
2018-12-21T03:00:50.360Z,7.90
2018-12-21T03:05:43.412Z,7.90
2018-12-21T03:10:37.703Z,8.00
2018-12-21T03:15:30.672Z,8.00
2018-12-21T03:20:23.742Z,7.90
2018-12-21T03:25:16.831Z,7.90
2018-12-21T03:30:10.923Z,7.90
2018-12-21T03:35:04.902Z,7.80
2018-12-21T03:39:58.482Z,7.80
2018-12-21T03:45:07.730Z,7.70
2018-12-21T03:50:00.717Z,7.70
2018-12-21T03:54:54.486Z,7.70
2018-12-21T03:59:48.281Z,7.60
2018-12-21T04:04:41.447Z,7.60
2018-12-21T04:09:34.517Z,7.60
2018-12-21T04:14:28.025Z,7.70
2018-12-21T04:19:21.275Z,7.60
2018-12-21T04:24:14.240Z,7.70
2018-12-21T04:29:07.821Z,7.70
2018-12-21T04:34:00.892Z,7.70
2018-12-21T04:38:53.860Z,7.70
2018-12-21T04:43:47.090Z,7.70
2018-12-21T04:48:40.105Z,7.70
2018-12-21T04:53:33.004Z,7.70
2018-12-21T04:58:27.512Z,7.70
2018-12-21T05:03:20.664Z,7.60
2018-12-21T05:08:13.714Z,7.60
2018-12-21T05:13:06.787Z,7.60
2018-12-21T05:18:00.067Z,7.60
2018-12-21T05:22:52.929Z,7.60
2018-12-21T05:27:46.410Z,7.70
2018-12-21T05:32:40.400Z,7.70
2018-12-21T05:37:33.391Z,7.70
2018-12-21T05:42:26.849Z,7.70
2018-12-21T05:47:19.927Z,7.70
2018-12-21T05:52:13.606Z,7.70
2018-12-21T05:57:07.719Z,7.60
2018-12-21T06:02:01.409Z,7.60
2018-12-21T06:06:54.404Z,7.30
2018-12-21T06:11:47.422Z,7.20
2018-12-21T06:16:40.867Z,7.20
2018-12-21T06:21:34.181Z,7.20
2018-12-21T06:26:27.252Z,7.20
2018-12-21T06:31:20.315Z,7.20
2018-12-21T06:36:13.396Z,7.10
2018-12-21T06:41:06.435Z,7.10
2018-12-21T06:45:59.584Z,7.20
2018-12-21T06:50:54.315Z,7.10
2018-12-21T06:55:48.126Z,7.10
2018-12-21T07:00:41.206Z,7.10
2018-12-21T07:05:34.725Z,7.00
2018-12-21T07:10:28.463Z,6.90
2018-12-21T07:15:21.738Z,6.90
2018-12-21T07:20:14.743Z,7.00
2018-12-21T07:25:07.878Z,7.00
2018-12-21T07:30:00.901Z,7.00
2018-12-21T07:34:53.712Z,7.10
2018-12-21T07:39:48.063Z,7.00
2018-12-21T07:44:41.187Z,7.10
2018-12-21T07:49:34.515Z,7.10
2018-12-21T07:54:27.530Z,7.20
2018-12-21T07:59:20.502Z,7.30
2018-12-21T08:04:13.619Z,7.30
2018-12-21T08:09:06.846Z,7.30
2018-12-21T08:13:59.708Z,7.30
2018-12-21T08:18:52.477Z,7.40
2018-12-21T08:23:45.442Z,7.50
2018-12-21T08:28:38.317Z,7.60
2018-12-21T08:33:31.293Z,7.80
2018-12-21T08:38:25.402Z,7.80
2018-12-21T08:43:18.441Z,7.90
2018-12-21T08:48:11.821Z,7.90
2018-12-21T08:53:07.166Z,7.90
2018-12-21T08:58:00.824Z,7.90
2018-12-21T09:02:53.792Z,8.10
2018-12-21T09:07:46.966Z,8.10
2018-12-21T09:12:39.932Z,8.30
2018-12-21T09:17:33.211Z,8.40
2018-12-21T09:22:26.175Z,8.50
2018-12-21T09:27:19.452Z,8.50
2018-12-21T09:32:12.356Z,8.60
2018-12-21T09:37:06.310Z,8.50
2018-12-21T09:42:00.196Z,8.50
2018-12-21T09:46:53.170Z,8.50
2018-12-21T09:51:46.237Z,8.50
2018-12-21T09:56:39.408Z,8.60
2018-12-21T10:01:32.683Z,8.50
2018-12-21T10:06:25.756Z,8.50
2018-12-21T10:11:18.999Z,8.40
2018-12-21T10:16:12.007Z,8.40
2018-12-21T10:21:06.196Z,8.40
2018-12-21T10:26:00.083Z,8.40
2018-12-21T10:30:53.153Z,8.50
2018-12-21T10:35:46.239Z,8.50
2018-12-21T10:40:40.411Z,8.50
2018-12-21T10:45:41.416Z,8.50
2018-12-21T10:50:28.817Z,8.30
2018-12-21T10:55:22.522Z,8.10
2018-12-21T11:00:16.358Z,8.00
2018-12-21T11:05:09.464Z,7.80
2018-12-21T11:10:02.870Z,7.70
2018-12-21T11:14:56.010Z,7.70
2018-12-21T11:19:49.407Z,7.70
2018-12-21T11:24:42.796Z,7.80
2018-12-21T11:29:35.672Z,7.90
2018-12-21T11:34:28.606Z,7.90
2018-12-21T11:39:21.565Z,7.90
2018-12-21T11:44:14.644Z,7.80
2018-12-21T11:49:10.585Z,7.80
2018-12-21T11:54:04.079Z,7.70
2018-12-21T11:58:57.329Z,7.70
2018-12-21T12:03:50.195Z,7.70
2018-12-21T12:08:43.061Z,7.70
2018-12-21T12:13:36.092Z,7.70
2018-12-21T12:18:29.202Z,7.70
2018-12-21T12:23:22.271Z,7.70
2018-12-21T12:28:15.390Z,7.70
2018-12-21T12:33:09.074Z,7.70
2018-12-21T12:38:02.200Z,7.70
2018-12-21T12:42:56.091Z,7.70
2018-12-21T12:47:48.955Z,7.60
2018-12-21T12:52:42.238Z,7.50
2018-12-21T12:57:35.929Z,7.50
2018-12-21T13:02:28.985Z,7.30
2018-12-21T13:07:22.481Z,7.20
2018-12-21T13:12:15.538Z,7.10
2018-12-21T13:17:08.447Z,7.00
2018-12-21T13:22:01.986Z,6.90
2018-12-21T13:26:54.851Z,6.90
2018-12-21T13:31:47.921Z,6.80
2018-12-21T13:36:40.908Z,6.90
2018-12-21T13:41:33.958Z,6.80
2018-12-21T13:46:26.991Z,6.80
2018-12-21T13:51:20.349Z,6.80
2018-12-21T13:56:13.393Z,6.80
2018-12-21T14:01:06.548Z,6.80
2018-12-21T14:05:59.479Z,6.80
2018-12-21T14:10:52.702Z,6.80
2018-12-21T14:15:45.789Z,6.80
2018-12-21T14:20:38.729Z,6.80
2018-12-21T14:25:32.720Z,6.80
2018-12-21T14:30:25.739Z,6.80
2018-12-21T14:35:18.759Z,6.90
2018-12-21T14:40:13.889Z,7.00
2018-12-21T14:45:06.847Z,7.00
2018-12-21T14:49:59.915Z,7.00
2018-12-21T14:54:52.921Z,6.90
2018-12-21T14:59:45.956Z,6.90
2018-12-21T15:04:46.809Z,6.90
2018-12-21T15:09:47.535Z,7.00
2018-12-21T15:14:40.780Z,7.00
2018-12-21T15:19:34.312Z,7.00
2018-12-21T15:24:29.123Z,7.10
2018-12-21T15:29:22.090Z,7.10
2018-12-21T15:34:15.164Z,7.20
2018-12-21T15:39:08.623Z,7.30
2018-12-21T15:44:03.737Z,7.40
2018-12-21T15:48:56.733Z,7.50
2018-12-21T15:53:49.718Z,7.50
2018-12-21T15:58:42.874Z,7.60
2018-12-21T16:03:35.953Z,7.70
2018-12-21T16:08:29.011Z,7.70
2018-12-21T16:13:24.887Z,7.80
2018-12-21T16:18:17.916Z,8.00
2018-12-21T16:23:10.738Z,8.10
2018-12-21T16:28:05.838Z,8.30
2018-12-21T16:32:59.073Z,8.40
2018-12-21T16:37:52.401Z,8.50
2018-12-21T16:42:45.385Z,8.70
2018-12-21T16:47:38.693Z,8.90
2018-12-21T16:52:31.662Z,9.00
2018-12-21T16:57:24.631Z,9.10
2018-12-21T17:02:18.119Z,9.10
2018-12-21T17:07:12.503Z,9.20
2018-12-21T17:12:05.583Z,9.30
2018-12-21T17:16:59.075Z,9.40
2018-12-21T17:21:53.206Z,9.50
2018-12-21T17:26:47.667Z,9.50
2018-12-21T17:31:40.731Z,9.60
2018-12-21T17:36:34.431Z,9.90
2018-12-21T17:41:27.487Z,10.40
2018-12-21T17:46:20.659Z,10.70
2018-12-21T17:51:19.221Z,11.00
2018-12-21T17:56:12.235Z,11.20
2018-12-21T18:01:05.322Z,11.30
2018-12-21T18:05:59.075Z,11.30
2018-12-21T18:10:52.563Z,11.50
2018-12-21T18:15:45.737Z,11.60
2018-12-21T18:20:38.904Z,11.70
2018-12-21T18:25:31.911Z,11.80
2018-12-21T18:30:25.358Z,11.80
2018-12-21T18:35:19.534Z,11.80
2018-12-21T18:40:13.036Z,11.80
2018-12-21T18:45:08.895Z,11.90
2018-12-21T18:50:01.940Z,11.90
2018-12-21T18:54:54.856Z,11.90
2018-12-21T18:59:47.876Z,12.00
2018-12-21T19:04:41.112Z,11.90
2018-12-21T19:09:34.328Z,11.90
2018-12-21T19:14:27.397Z,11.80
2018-12-21T19:19:20.662Z,11.60
2018-12-21T19:24:13.541Z,11.70
2018-12-21T19:29:06.608Z,11.70
2018-12-21T19:33:59.578Z,11.60
2018-12-21T19:38:52.545Z,11.50
2018-12-21T19:43:45.613Z,11.40
2018-12-21T19:48:38.686Z,11.40
2018-12-21T19:53:32.412Z,11.60
2018-12-21T19:58:26.977Z,11.80
2018-12-21T20:03:21.072Z,11.70
2018-12-21T20:08:14.252Z,11.90
2018-12-21T20:13:07.315Z,12.00
2018-12-21T20:18:00.393Z,12.00
2018-12-21T20:22:54.424Z,11.90
2018-12-21T20:27:47.810Z,12.10
2018-12-21T20:32:40.826Z,12.40
2018-12-21T20:37:33.853Z,12.60
2018-12-21T20:42:26.965Z,12.60
2018-12-21T20:47:19.986Z,12.60
2018-12-21T20:52:16.743Z,12.50
2018-12-21T20:57:09.769Z,12.50
2018-12-21T21:02:02.834Z,12.50
2018-12-21T21:06:58.260Z,12.30
2018-12-21T21:11:51.533Z,12.20
2018-12-21T21:16:44.604Z,12.20
2018-12-21T21:21:37.883Z,12.20
2018-12-21T21:26:30.912Z,12.20
2018-12-21T21:31:24.539Z,12.20
2018-12-21T21:36:17.809Z,12.20
2018-12-21T21:41:11.090Z,12.20
2018-12-21T21:46:04.379Z,12.10
2018-12-21T21:50:57.329Z,11.90
2018-12-21T21:55:50.218Z,11.70
2018-12-21T22:00:43.983Z,11.50
2018-12-21T22:05:37.254Z,11.40
2018-12-21T22:10:30.326Z,11.50
2018-12-21T22:15:23.294Z,11.70
2018-12-21T22:20:19.818Z,11.60
2018-12-21T22:25:13.021Z,11.50
2018-12-21T22:30:08.958Z,11.60
2018-12-21T22:35:02.232Z,11.60
2018-12-21T22:39:57.612Z,11.50
2018-12-21T22:44:50.729Z,11.40
2018-12-21T22:49:43.732Z,11.30
2018-12-21T22:54:36.667Z,11.20
2018-12-21T22:59:29.632Z,11.40
2018-12-21T23:04:22.517Z,11.60
2018-12-21T23:09:17.002Z,11.70
2018-12-21T23:14:10.399Z,11.80
2018-12-21T23:19:05.467Z,11.90
2018-12-21T23:24:00.105Z,11.90
2018-12-21T23:28:52.971Z,11.90
2018-12-21T23:33:46.045Z,11.90
2018-12-21T23:38:39.063Z,11.90
2018-12-21T23:43:31.978Z,11.90
2018-12-21T23:48:24.947Z,12.00
2018-12-21T23:53:18.016Z,12.00
2018-12-21T23:58:13.764Z,12.20
